sensor_id;sensor_type;location;lat;lon;timestamp;P1;durP1;ratioP1;P2;durP2;ratioP2
18905;SDS011;9585;51.018;4.282;2023-04-03T00:02:19;6.07;;;5.47;;
18905;SDS011;9585;51.018;4.282;2023-04-03T00:04:47;6.50;;;4.93;;
18905;SDS011;9585;51.018;4.282;2023-04-03T00:07:14;7.87;;;5.57;;
18905;SDS011;9585;51.018;4.282;2023-04-03T00:09:42;8.37;;;5.43;;
18905;SDS011;9585;51.018;4.282;2023-04-03T00:12:09;7.43;;;5.80;;
18905;SDS011;9585;51.018;4.282;2023-04-03T00:14:38;5.73;;;5.10;;
18905;SDS011;9585;51.018;4.282;2023-04-03T00:17:06;9.00;;;5.33;;
18905;SDS011;9585;51.018;4.282;2023-04-03T00:19:33;5.27;;;4.73;;
18905;SDS011;9585;51.018;4.282;2023-04-03T00:22:00;7.60;;;5.40;;
18905;SDS011;9585;51.018;4.282;2023-04-03T00:24:28;6.20;;;5.30;;
18905;SDS011;9585;51.018;4.282;2023-04-03T00:26:55;5.63;;;4.70;;
18905;SDS011;9585;51.018;4.282;2023-04-03T00:29:22;5.47;;;4.87;;
18905;SDS011;9585;51.018;4.282;2023-04-03T00:31:51;7.03;;;4.80;;
18905;SDS011;9585;51.018;4.282;2023-04-03T00:34:18;7.73;;;5.17;;
18905;SDS011;9585;51.018;4.282;2023-04-03T00:36:46;5.97;;;4.90;;
18905;SDS011;9585;51.018;4.282;2023-04-03T00:39:13;6.97;;;4.97;;
18905;SDS011;9585;51.018;4.282;2023-04-03T00:41:40;6.13;;;4.50;;
18905;SDS011;9585;51.018;4.282;2023-04-03T00:47:08;6.63;;;4.73;;
18905;SDS011;9585;51.018;4.282;2023-04-03T00:49:37;6.93;;;4.83;;
18905;SDS011;9585;51.018;4.282;2023-04-03T00:52:06;7.57;;;4.93;;
18905;SDS011;9585;51.018;4.282;2023-04-03T00:54:37;6.20;;;4.50;;
18905;SDS011;9585;51.018;4.282;2023-04-03T00:57:07;6.17;;;4.60;;
18905;SDS011;9585;51.018;4.282;2023-04-03T00:59:35;6.17;;;4.80;;
18905;SDS011;9585;51.018;4.282;2023-04-03T01:02:09;5.50;;;4.63;;
18905;SDS011;9585;51.018;4.282;2023-04-03T01:04:36;5.90;;;4.23;;
18905;SDS011;9585;51.018;4.282;2023-04-03T01:07:07;5.37;;;4.30;;
18905;SDS011;9585;51.018;4.282;2023-04-03T01:09:36;4.70;;;4.20;;
18905;SDS011;9585;51.018;4.282;2023-04-03T01:14:51;6.80;;;4.73;;
18905;SDS011;9585;51.018;4.282;2023-04-03T01:17:26;6.07;;;4.43;;
18905;SDS011;9585;51.018;4.282;2023-04-03T01:19:57;5.77;;;4.20;;
18905;SDS011;9585;51.018;4.282;2023-04-03T01:22:46;6.20;;;4.77;;
18905;SDS011;9585;51.018;4.282;2023-04-03T01:25:22;6.47;;;4.63;;
18905;SDS011;9585;51.018;4.282;2023-04-03T01:27:50;5.47;;;4.83;;
18905;SDS011;9585;51.018;4.282;2023-04-03T01:30:19;7.13;;;5.07;;
18905;SDS011;9585;51.018;4.282;2023-04-03T01:32:52;6.80;;;5.00;;
18905;SDS011;9585;51.018;4.282;2023-04-03T01:35:20;7.67;;;4.60;;
18905;SDS011;9585;51.018;4.282;2023-04-03T01:37:47;7.83;;;5.13;;
18905;SDS011;9585;51.018;4.282;2023-04-03T01:40:15;7.53;;;5.30;;
18905;SDS011;9585;51.018;4.282;2023-04-03T01:42:42;7.13;;;4.90;;
18905;SDS011;9585;51.018;4.282;2023-04-03T01:45:10;6.43;;;5.07;;
18905;SDS011;9585;51.018;4.282;2023-04-03T01:47:37;5.37;;;4.87;;
18905;SDS011;9585;51.018;4.282;2023-04-03T01:50:07;5.53;;;4.40;;
18905;SDS011;9585;51.018;4.282;2023-04-03T01:52:34;7.70;;;5.27;;
18905;SDS011;9585;51.018;4.282;2023-04-03T01:55:02;7.53;;;5.13;;
18905;SDS011;9585;51.018;4.282;2023-04-03T01:57:29;7.90;;;5.40;;
18905;SDS011;9585;51.018;4.282;2023-04-03T01:59:57;5.90;;;5.13;;
18905;SDS011;9585;51.018;4.282;2023-04-03T02:02:24;7.70;;;5.30;;
18905;SDS011;9585;51.018;4.282;2023-04-03T02:04:55;6.33;;;5.00;;
18905;SDS011;9585;51.018;4.282;2023-04-03T02:07:24;7.10;;;5.03;;
18905;SDS011;9585;51.018;4.282;2023-04-03T02:09:51;8.50;;;5.60;;
18905;SDS011;9585;51.018;4.282;2023-04-03T02:12:19;7.03;;;5.53;;
18905;SDS011;9585;51.018;4.282;2023-04-03T02:14:46;7.43;;;5.73;;
18905;SDS011;9585;51.018;4.282;2023-04-03T02:17:14;7.00;;;5.30;;
18905;SDS011;9585;51.018;4.282;2023-04-03T02:19:41;8.30;;;6.10;;
18905;SDS011;9585;51.018;4.282;2023-04-03T02:22:09;6.07;;;5.47;;
18905;SDS011;9585;51.018;4.282;2023-04-03T02:24:38;7.63;;;5.80;;
18905;SDS011;9585;51.018;4.282;2023-04-03T02:27:05;7.27;;;5.90;;
18905;SDS011;9585;51.018;4.282;2023-04-03T02:29:32;7.47;;;5.87;;
18905;SDS011;9585;51.018;4.282;2023-04-03T02:32:00;5.47;;;4.97;;
18905;SDS011;9585;51.018;4.282;2023-04-03T02:34:27;7.30;;;5.03;;
18905;SDS011;9585;51.018;4.282;2023-04-03T02:36:54;6.23;;;5.17;;
18905;SDS011;9585;51.018;4.282;2023-04-03T02:39:22;6.23;;;5.10;;
18905;SDS011;9585;51.018;4.282;2023-04-03T02:41:51;8.47;;;5.70;;
18905;SDS011;9585;51.018;4.282;2023-04-03T02:44:18;9.43;;;5.87;;
18905;SDS011;9585;51.018;4.282;2023-04-03T02:46:45;6.23;;;5.07;;
18905;SDS011;9585;51.018;4.282;2023-04-03T02:49:13;7.73;;;5.50;;
18905;SDS011;9585;51.018;4.282;2023-04-03T02:51:40;7.03;;;5.80;;
18905;SDS011;9585;51.018;4.282;2023-04-03T02:54:08;6.43;;;5.60;;
18905;SDS011;9585;51.018;4.282;2023-04-03T02:56:35;7.70;;;6.10;;
18905;SDS011;9585;51.018;4.282;2023-04-03T02:59:04;7.13;;;5.80;;
18905;SDS011;9585;51.018;4.282;2023-04-03T03:01:32;6.00;;;5.40;;
18905;SDS011;9585;51.018;4.282;2023-04-03T03:03:59;9.37;;;6.43;;
18905;SDS011;9585;51.018;4.282;2023-04-03T03:06:27;6.83;;;5.77;;
18905;SDS011;9585;51.018;4.282;2023-04-03T03:08:54;7.80;;;5.83;;
18905;SDS011;9585;51.018;4.282;2023-04-03T03:11:22;8.87;;;6.17;;
18905;SDS011;9585;51.018;4.282;2023-04-03T03:13:50;6.83;;;5.60;;
18905;SDS011;9585;51.018;4.282;2023-04-03T03:16:19;8.33;;;5.87;;
18905;SDS011;9585;51.018;4.282;2023-04-03T03:18:46;7.03;;;5.33;;
18905;SDS011;9585;51.018;4.282;2023-04-03T03:21:14;7.17;;;5.73;;
18905;SDS011;9585;51.018;4.282;2023-04-03T03:23:41;6.87;;;6.17;;
18905;SDS011;9585;51.018;4.282;2023-04-03T03:26:09;7.00;;;5.50;;
18905;SDS011;9585;51.018;4.282;2023-04-03T03:28:38;7.00;;;5.80;;
18905;SDS011;9585;51.018;4.282;2023-04-03T03:31:06;7.27;;;5.27;;
18905;SDS011;9585;51.018;4.282;2023-04-03T03:33:36;5.93;;;5.33;;
18905;SDS011;9585;51.018;4.282;2023-04-03T03:36:04;5.50;;;4.90;;
18905;SDS011;9585;51.018;4.282;2023-04-03T03:38:32;8.13;;;6.33;;
18905;SDS011;9585;51.018;4.282;2023-04-03T03:40:59;8.13;;;5.67;;
18905;SDS011;9585;51.018;4.282;2023-04-03T03:43:27;9.00;;;7.00;;
18905;SDS011;9585;51.018;4.282;2023-04-03T03:45:55;7.90;;;6.30;;
18905;SDS011;9585;51.018;4.282;2023-04-03T03:48:22;9.47;;;6.43;;
18905;SDS011;9585;51.018;4.282;2023-04-03T03:50:51;7.93;;;6.70;;
18905;SDS011;9585;51.018;4.282;2023-04-03T03:53:18;8.00;;;6.40;;
18905;SDS011;9585;51.018;4.282;2023-04-03T03:55:46;7.37;;;6.13;;
18905;SDS011;9585;51.018;4.282;2023-04-03T03:58:13;7.33;;;6.30;;
18905;SDS011;9585;51.018;4.282;2023-04-03T04:00:40;6.90;;;6.17;;
18905;SDS011;9585;51.018;4.282;2023-04-03T04:03:08;7.37;;;6.20;;
18905;SDS011;9585;51.018;4.282;2023-04-03T04:05:35;6.63;;;5.90;;
18905;SDS011;9585;51.018;4.282;2023-04-03T04:08:04;6.90;;;5.90;;
18905;SDS011;9585;51.018;4.282;2023-04-03T04:10:32;7.10;;;5.90;;
18905;SDS011;9585;51.018;4.282;2023-04-03T04:12:59;6.83;;;5.57;;
18905;SDS011;9585;51.018;4.282;2023-04-03T04:15:27;8.30;;;5.83;;
18905;SDS011;9585;51.018;4.282;2023-04-03T04:17:54;6.73;;;5.53;;
18905;SDS011;9585;51.018;4.282;2023-04-03T04:20:22;7.80;;;6.13;;
18905;SDS011;9585;51.018;4.282;2023-04-03T04:22:49;7.87;;;6.60;;
18905;SDS011;9585;51.018;4.282;2023-04-03T04:25:18;8.00;;;7.20;;
18905;SDS011;9585;51.018;4.282;2023-04-03T04:27:46;6.60;;;5.87;;
18905;SDS011;9585;51.018;4.282;2023-04-03T04:30:13;6.63;;;5.93;;
18905;SDS011;9585;51.018;4.282;2023-04-03T04:32:41;7.07;;;6.37;;
18905;SDS011;9585;51.018;4.282;2023-04-03T04:35:08;6.50;;;5.77;;
18905;SDS011;9585;51.018;4.282;2023-04-03T04:37:35;7.23;;;5.50;;
18905;SDS011;9585;51.018;4.282;2023-04-03T04:40:03;6.53;;;5.70;;
18905;SDS011;9585;51.018;4.282;2023-04-03T04:42:33;6.43;;;5.50;;
18905;SDS011;9585;51.018;4.282;2023-04-03T04:45:00;6.67;;;5.43;;
18905;SDS011;9585;51.018;4.282;2023-04-03T04:47:28;6.10;;;5.50;;
18905;SDS011;9585;51.018;4.282;2023-04-03T04:49:56;7.97;;;5.83;;
18905;SDS011;9585;51.018;4.282;2023-04-03T04:52:23;7.13;;;5.90;;
18905;SDS011;9585;51.018;4.282;2023-04-03T04:54:50;6.57;;;5.87;;
18905;SDS011;9585;51.018;4.282;2023-04-03T04:57:18;7.57;;;6.63;;
18905;SDS011;9585;51.018;4.282;2023-04-03T04:59:47;7.30;;;6.50;;
18905;SDS011;9585;51.018;4.282;2023-04-03T05:02:14;7.40;;;6.50;;
18905;SDS011;9585;51.018;4.282;2023-04-03T05:04:42;7.50;;;6.80;;
18905;SDS011;9585;51.018;4.282;2023-04-03T05:07:09;7.93;;;6.83;;
18905;SDS011;9585;51.018;4.282;2023-04-03T05:09:37;7.17;;;6.27;;
18905;SDS011;9585;51.018;4.282;2023-04-03T05:12:07;6.80;;;6.10;;
18905;SDS011;9585;51.018;4.282;2023-04-03T05:14:35;6.60;;;5.90;;
18905;SDS011;9585;51.018;4.282;2023-04-03T05:17:04;6.77;;;5.77;;
18905;SDS011;9585;51.018;4.282;2023-04-03T05:19:31;6.20;;;5.60;;
18905;SDS011;9585;51.018;4.282;2023-04-03T05:21:58;5.77;;;5.17;;
18905;SDS011;9585;51.018;4.282;2023-04-03T05:24:26;5.67;;;5.17;;
18905;SDS011;9585;51.018;4.282;2023-04-03T05:26:53;6.10;;;5.50;;
18905;SDS011;9585;51.018;4.282;2023-04-03T05:29:20;6.07;;;5.37;;
18905;SDS011;9585;51.018;4.282;2023-04-03T05:31:48;5.87;;;5.27;;
18905;SDS011;9585;51.018;4.282;2023-04-03T05:34:18;6.90;;;4.97;;
18905;SDS011;9585;51.018;4.282;2023-04-03T05:36:45;5.40;;;4.90;;
18905;SDS011;9585;51.018;4.282;2023-04-03T05:39:13;6.03;;;4.60;;
18905;SDS011;9585;51.018;4.282;2023-04-03T05:41:41;5.47;;;4.93;;
18905;SDS011;9585;51.018;4.282;2023-04-03T05:44:08;5.60;;;5.00;;
18905;SDS011;9585;51.018;4.282;2023-04-03T05:46:35;5.30;;;4.80;;
18905;SDS011;9585;51.018;4.282;2023-04-03T05:49:03;5.37;;;4.83;;
18905;SDS011;9585;51.018;4.282;2023-04-03T05:51:33;5.30;;;4.80;;
18905;SDS011;9585;51.018;4.282;2023-04-03T05:54:06;5.63;;;4.97;;
18905;SDS011;9585;51.018;4.282;2023-04-03T05:56:37;5.57;;;4.90;;
18905;SDS011;9585;51.018;4.282;2023-04-03T05:59:05;5.23;;;4.73;;
18905;SDS011;9585;51.018;4.282;2023-04-03T06:01:32;6.53;;;5.83;;
18905;SDS011;9585;51.018;4.282;2023-04-03T06:04:00;7.57;;;6.87;;
18905;SDS011;9585;51.018;4.282;2023-04-03T06:09:26;19.30;;;13.50;;
18905;SDS011;9585;51.018;4.282;2023-04-03T06:11:55;11.33;;;10.13;;
18905;SDS011;9585;51.018;4.282;2023-04-03T06:14:23;8.77;;;7.50;;
18905;SDS011;9585;51.018;4.282;2023-04-03T06:16:51;7.18;;;6.30;;
18905;SDS011;9585;51.018;4.282;2023-04-03T06:19:20;7.07;;;5.70;;
18905;SDS011;9585;51.018;4.282;2023-04-03T06:21:47;6.65;;;5.10;;
18905;SDS011;9585;51.018;4.282;2023-04-03T06:24:15;5.57;;;4.68;;
18905;SDS011;9585;51.018;4.282;2023-04-03T06:26:44;7.15;;;4.45;;
18905;SDS011;9585;51.018;4.282;2023-04-03T06:29:12;5.00;;;4.40;;
18905;SDS011;9585;51.018;4.282;2023-04-03T06:31:39;5.53;;;4.15;;
18905;SDS011;9585;51.018;4.282;2023-04-03T06:34:07;4.80;;;4.20;;
18905;SDS011;9585;51.018;4.282;2023-04-03T06:36:36;6.93;;;4.55;;
18905;SDS011;9585;51.018;4.282;2023-04-03T06:39:04;7.72;;;4.80;;
18905;SDS011;9585;51.018;4.282;2023-04-03T06:41:32;7.15;;;4.68;;
18905;SDS011;9585;51.018;4.282;2023-04-03T06:44:02;5.70;;;4.45;;
18905;SDS011;9585;51.018;4.282;2023-04-03T06:46:30;7.40;;;4.50;;
18905;SDS011;9585;51.018;4.282;2023-04-03T06:48:57;4.80;;;4.30;;
18905;SDS011;9585;51.018;4.282;2023-04-03T06:51:25;6.40;;;3.72;;
18905;SDS011;9585;51.018;4.282;2023-04-03T06:53:54;6.05;;;4.28;;
18905;SDS011;9585;51.018;4.282;2023-04-03T06:56:24;5.07;;;3.90;;
18905;SDS011;9585;51.018;4.282;2023-04-03T06:58:52;4.38;;;3.97;;
18905;SDS011;9585;51.018;4.282;2023-04-03T07:01:27;5.15;;;4.30;;
18905;SDS011;9585;51.018;4.282;2023-04-03T07:03:59;8.38;;;3.90;;
18905;SDS011;9585;51.018;4.282;2023-04-03T07:06:27;5.43;;;4.15;;
18905;SDS011;9585;51.018;4.282;2023-04-03T07:08:56;5.50;;;4.05;;
18905;SDS011;9585;51.018;4.282;2023-04-03T07:11:23;4.80;;;4.03;;
18905;SDS011;9585;51.018;4.282;2023-04-03T07:13:51;5.45;;;3.70;;
18905;SDS011;9585;51.018;4.282;2023-04-03T07:16:20;6.95;;;4.00;;
18905;SDS011;9585;51.018;4.282;2023-04-03T07:18:49;5.80;;;3.95;;
18905;SDS011;9585;51.018;4.282;2023-04-03T07:21:16;5.65;;;4.30;;
18905;SDS011;9585;51.018;4.282;2023-04-03T07:23:44;6.32;;;3.72;;
18905;SDS011;9585;51.018;4.282;2023-04-03T07:26:11;4.47;;;3.70;;
18905;SDS011;9585;51.018;4.282;2023-04-03T07:28:39;4.97;;;3.35;;
18905;SDS011;9585;51.018;4.282;2023-04-03T07:31:08;5.40;;;3.40;;
18905;SDS011;9585;51.018;4.282;2023-04-03T07:33:38;4.30;;;3.17;;
18905;SDS011;9585;51.018;4.282;2023-04-03T07:36:10;5.15;;;3.30;;
18905;SDS011;9585;51.018;4.282;2023-04-03T07:38:43;3.83;;;3.03;;
18905;SDS011;9585;51.018;4.282;2023-04-03T07:41:11;5.07;;;3.25;;
18905;SDS011;9585;51.018;4.282;2023-04-03T07:43:40;4.90;;;3.42;;
18905;SDS011;9585;51.018;4.282;2023-04-03T07:46:08;5.82;;;3.35;;
18905;SDS011;9585;51.018;4.282;2023-04-03T07:48:36;4.18;;;3.15;;
18905;SDS011;9585;51.018;4.282;2023-04-03T07:51:06;5.70;;;3.40;;
18905;SDS011;9585;51.018;4.282;2023-04-03T07:53:39;5.43;;;3.83;;
18905;SDS011;9585;51.018;4.282;2023-04-03T07:56:06;4.65;;;3.60;;
18905;SDS011;9585;51.018;4.282;2023-04-03T07:58:34;4.65;;;2.95;;
18905;SDS011;9585;51.018;4.282;2023-04-03T08:01:02;3.90;;;3.10;;
18905;SDS011;9585;51.018;4.282;2023-04-03T08:03:30;4.85;;;3.22;;
18905;SDS011;9585;51.018;4.282;2023-04-03T08:06:17;4.40;;;3.30;;
18905;SDS011;9585;51.018;4.282;2023-04-03T08:08:46;4.57;;;3.08;;
18905;SDS011;9585;51.018;4.282;2023-04-03T08:11:13;5.05;;;2.70;;
18905;SDS011;9585;51.018;4.282;2023-04-03T08:13:41;5.18;;;2.90;;
18905;SDS011;9585;51.018;4.282;2023-04-03T08:16:15;4.25;;;3.00;;
18905;SDS011;9585;51.018;4.282;2023-04-03T08:18:47;5.57;;;3.35;;
18905;SDS011;9585;51.018;4.282;2023-04-03T08:21:15;5.00;;;2.88;;
18905;SDS011;9585;51.018;4.282;2023-04-03T08:23:42;5.05;;;3.13;;
18905;SDS011;9585;51.018;4.282;2023-04-03T08:26:12;6.30;;;2.88;;
18905;SDS011;9585;51.018;4.282;2023-04-03T08:28:44;4.07;;;2.70;;
18905;SDS011;9585;51.018;4.282;2023-04-03T08:31:12;4.35;;;2.55;;
18905;SDS011;9585;51.018;4.282;2023-04-03T08:33:41;4.75;;;2.78;;
18905;SDS011;9585;51.018;4.282;2023-04-03T08:36:17;4.55;;;2.38;;
18905;SDS011;9585;51.018;4.282;2023-04-03T08:38:45;5.65;;;3.05;;
18905;SDS011;9585;51.018;4.282;2023-04-03T08:41:16;4.88;;;2.67;;
18905;SDS011;9585;51.018;4.282;2023-04-03T08:44:01;4.95;;;2.78;;
18905;SDS011;9585;51.018;4.282;2023-04-03T08:46:40;6.15;;;2.60;;
18905;SDS011;9585;51.018;4.282;2023-04-03T08:49:16;3.13;;;2.35;;
18905;SDS011;9585;51.018;4.282;2023-04-03T08:51:49;3.95;;;2.70;;
18905;SDS011;9585;51.018;4.282;2023-04-03T08:54:21;3.53;;;2.30;;
18905;SDS011;9585;51.018;4.282;2023-04-03T08:56:55;3.78;;;2.50;;
18905;SDS011;9585;51.018;4.282;2023-04-03T08:59:26;4.75;;;2.38;;
18905;SDS011;9585;51.018;4.282;2023-04-03T09:01:56;3.55;;;2.33;;
18905;SDS011;9585;51.018;4.282;2023-04-03T09:04:27;4.97;;;2.70;;
18905;SDS011;9585;51.018;4.282;2023-04-03T09:07:04;4.22;;;2.40;;
18905;SDS011;9585;51.018;4.282;2023-04-03T09:09:41;8.45;;;3.10;;
18905;SDS011;9585;51.018;4.282;2023-04-03T09:12:17;4.47;;;2.50;;
18905;SDS011;9585;51.018;4.282;2023-04-03T09:14:55;6.22;;;2.30;;
18905;SDS011;9585;51.018;4.282;2023-04-03T09:17:35;4.18;;;2.28;;
18905;SDS011;9585;51.018;4.282;2023-04-03T09:20:15;3.28;;;2.40;;
18905;SDS011;9585;51.018;4.282;2023-04-03T09:22:46;3.97;;;2.15;;
18905;SDS011;9585;51.018;4.282;2023-04-03T09:25:17;4.25;;;2.30;;
18905;SDS011;9585;51.018;4.282;2023-04-03T09:27:48;4.80;;;2.30;;
18905;SDS011;9585;51.018;4.282;2023-04-03T09:30:17;2.90;;;2.17;;
18905;SDS011;9585;51.018;4.282;2023-04-03T09:32:53;4.22;;;1.90;;
18905;SDS011;9585;51.018;4.282;2023-04-03T09:35:23;2.75;;;1.77;;
18905;SDS011;9585;51.018;4.282;2023-04-03T09:37:52;3.53;;;2.17;;
18905;SDS011;9585;51.018;4.282;2023-04-03T09:40:29;4.35;;;1.52;;
18905;SDS011;9585;51.018;4.282;2023-04-03T09:43:18;5.38;;;1.85;;
18905;SDS011;9585;51.018;4.282;2023-04-03T09:45:49;4.55;;;1.80;;
18905;SDS011;9585;51.018;4.282;2023-04-03T09:48:18;3.38;;;1.83;;
18905;SDS011;9585;51.018;4.282;2023-04-03T09:50:58;2.53;;;1.50;;
18905;SDS011;9585;51.018;4.282;2023-04-03T09:53:33;3.50;;;1.80;;
18905;SDS011;9585;51.018;4.282;2023-04-03T09:56:09;4.03;;;1.70;;
18905;SDS011;9585;51.018;4.282;2023-04-03T09:58:49;7.03;;;2.30;;
18905;SDS011;9585;51.018;4.282;2023-04-03T10:01:25;5.40;;;1.67;;
18905;SDS011;9585;51.018;4.282;2023-04-03T10:04:07;3.92;;;1.67;;
18905;SDS011;9585;51.018;4.282;2023-04-03T10:06:37;3.88;;;1.90;;
18905;SDS011;9585;51.018;4.282;2023-04-03T10:09:16;2.78;;;1.73;;
18905;SDS011;9585;51.018;4.282;2023-04-03T10:11:59;3.83;;;1.90;;
18905;SDS011;9585;51.018;4.282;2023-04-03T10:14:31;2.75;;;1.50;;
18905;SDS011;9585;51.018;4.282;2023-04-03T10:17:02;5.05;;;1.70;;
18905;SDS011;9585;51.018;4.282;2023-04-03T10:19:38;2.72;;;1.70;;
18905;SDS011;9585;51.018;4.282;2023-04-03T10:22:12;5.32;;;2.10;;
18905;SDS011;9585;51.018;4.282;2023-04-03T10:24:52;2.85;;;1.52;;
18905;SDS011;9585;51.018;4.282;2023-04-03T10:27:27;4.15;;;1.77;;
18905;SDS011;9585;51.018;4.282;2023-04-03T10:30:12;4.53;;;1.85;;
18905;SDS011;9585;51.018;4.282;2023-04-03T10:32:52;2.90;;;1.70;;
18905;SDS011;9585;51.018;4.282;2023-04-03T10:35:30;3.80;;;1.50;;
18905;SDS011;9585;51.018;4.282;2023-04-03T10:38:09;3.42;;;1.50;;
18905;SDS011;9585;51.018;4.282;2023-04-03T10:40:45;3.05;;;1.45;;
18905;SDS011;9585;51.018;4.282;2023-04-03T10:43:21;3.65;;;1.70;;
18905;SDS011;9585;51.018;4.282;2023-04-03T10:45:57;3.65;;;1.40;;
18905;SDS011;9585;51.018;4.282;2023-04-03T10:48:34;2.80;;;1.63;;
18905;SDS011;9585;51.018;4.282;2023-04-03T10:51:24;4.53;;;1.67;;
18905;SDS011;9585;51.018;4.282;2023-04-03T10:53:56;5.22;;;1.90;;
18905;SDS011;9585;51.018;4.282;2023-04-03T10:56:35;2.58;;;1.70;;
18905;SDS011;9585;51.018;4.282;2023-04-03T10:59:11;3.42;;;1.80;;
18905;SDS011;9585;51.018;4.282;2023-04-03T11:01:48;2.85;;;1.50;;
18905;SDS011;9585;51.018;4.282;2023-04-03T11:04:19;2.53;;;1.42;;
18905;SDS011;9585;51.018;4.282;2023-04-03T11:06:50;4.40;;;1.70;;
18905;SDS011;9585;51.018;4.282;2023-04-03T11:09:25;2.05;;;1.40;;
18905;SDS011;9585;51.018;4.282;2023-04-03T11:12:00;3.50;;;1.52;;
18905;SDS011;9585;51.018;4.282;2023-04-03T11:14:36;3.10;;;1.48;;
18905;SDS011;9585;51.018;4.282;2023-04-03T11:17:09;3.75;;;1.40;;
18905;SDS011;9585;51.018;4.282;2023-04-03T11:19:52;1.42;;;1.20;;
18905;SDS011;9585;51.018;4.282;2023-04-03T11:22:28;3.00;;;0.98;;
18905;SDS011;9585;51.018;4.282;2023-04-03T11:25:02;2.63;;;1.35;;
18905;SDS011;9585;51.018;4.282;2023-04-03T11:27:34;3.42;;;0.90;;
18905;SDS011;9585;51.018;4.282;2023-04-03T11:30:07;2.28;;;1.17;;
18905;SDS011;9585;51.018;4.282;2023-04-03T11:32:59;2.63;;;1.23;;
18905;SDS011;9585;51.018;4.282;2023-04-03T11:35:42;3.03;;;1.23;;
18905;SDS011;9585;51.018;4.282;2023-04-03T11:38:14;1.75;;;1.10;;
18905;SDS011;9585;51.018;4.282;2023-04-03T11:40:48;3.33;;;1.10;;
18905;SDS011;9585;51.018;4.282;2023-04-03T11:43:20;2.40;;;1.10;;
18905;SDS011;9585;51.018;4.282;2023-04-03T11:45:52;2.58;;;1.35;;
18905;SDS011;9585;51.018;4.282;2023-04-03T12:09:25;2.50;;;1.17;;
18905;SDS011;9585;51.018;4.282;2023-04-03T12:12:00;1.20;;;0.80;;
18905;SDS011;9585;51.018;4.282;2023-04-03T12:14:53;2.15;;;1.10;;
18905;SDS011;9585;51.018;4.282;2023-04-03T12:17:26;1.65;;;1.00;;
18905;SDS011;9585;51.018;4.282;2023-04-03T12:19:54;1.55;;;1.08;;
18905;SDS011;9585;51.018;4.282;2023-04-03T12:22:22;2.13;;;0.98;;
18905;SDS011;9585;51.018;4.282;2023-04-03T12:24:55;1.83;;;1.20;;
18905;SDS011;9585;51.018;4.282;2023-04-03T12:27:24;2.35;;;0.90;;
18905;SDS011;9585;51.018;4.282;2023-04-03T12:30:07;2.42;;;0.80;;
18905;SDS011;9585;51.018;4.282;2023-04-03T12:32:47;2.15;;;0.90;;
18905;SDS011;9585;51.018;4.282;2023-04-03T12:35:44;1.52;;;0.80;;
18905;SDS011;9585;51.018;4.282;2023-04-03T12:38:41;1.45;;;0.90;;
18905;SDS011;9585;51.018;4.282;2023-04-03T12:41:38;2.38;;;1.10;;
18905;SDS011;9585;51.018;4.282;2023-04-03T12:44:26;2.25;;;1.00;;
18905;SDS011;9585;51.018;4.282;2023-04-03T12:47:14;1.27;;;0.85;;
18905;SDS011;9585;51.018;4.282;2023-04-03T12:49:49;2.25;;;0.93;;
18905;SDS011;9585;51.018;4.282;2023-04-03T12:52:18;1.55;;;1.00;;
18905;SDS011;9585;51.018;4.282;2023-04-03T12:54:51;1.83;;;0.98;;
18905;SDS011;9585;51.018;4.282;2023-04-03T12:57:22;2.35;;;0.93;;
18905;SDS011;9585;51.018;4.282;2023-04-03T12:59:55;2.20;;;0.82;;
18905;SDS011;9585;51.018;4.282;2023-04-03T13:02:23;3.05;;;1.00;;
18905;SDS011;9585;51.018;4.282;2023-04-03T13:04:53;1.73;;;0.73;;
18905;SDS011;9585;51.018;4.282;2023-04-03T13:07:24;2.47;;;0.90;;
18905;SDS011;9585;51.018;4.282;2023-04-03T13:09:58;2.10;;;0.82;;
18905;SDS011;9585;51.018;4.282;2023-04-03T13:12:28;2.25;;;0.90;;
18905;SDS011;9585;51.018;4.282;2023-04-03T13:14:59;1.95;;;0.93;;
18905;SDS011;9585;51.018;4.282;2023-04-03T13:17:29;2.00;;;1.08;;
18905;SDS011;9585;51.018;4.282;2023-04-03T13:20:10;2.58;;;1.13;;
18905;SDS011;9585;51.018;4.282;2023-04-03T13:22:40;1.70;;;1.10;;
18905;SDS011;9585;51.018;4.282;2023-04-03T13:25:16;2.35;;;1.20;;
18905;SDS011;9585;51.018;4.282;2023-04-03T13:27:47;3.92;;;0.98;;
18905;SDS011;9585;51.018;4.282;2023-04-03T13:30:19;1.45;;;0.93;;
18905;SDS011;9585;51.018;4.282;2023-04-03T13:32:52;3.88;;;1.25;;
18905;SDS011;9585;51.018;4.282;2023-04-03T13:35:34;1.98;;;0.98;;
18905;SDS011;9585;51.018;4.282;2023-04-03T13:38:21;1.67;;;1.02;;
18905;SDS011;9585;51.018;4.282;2023-04-03T13:40:54;2.25;;;1.13;;
18905;SDS011;9585;51.018;4.282;2023-04-03T13:43:30;1.83;;;1.10;;
18905;SDS011;9585;51.018;4.282;2023-04-03T13:46:01;1.95;;;1.10;;
18905;SDS011;9585;51.018;4.282;2023-04-03T13:48:35;1.05;;;0.90;;
18905;SDS011;9585;51.018;4.282;2023-04-03T13:51:05;2.08;;;1.05;;
18905;SDS011;9585;51.018;4.282;2023-04-03T13:53:46;3.55;;;1.35;;
18905;SDS011;9585;51.018;4.282;2023-04-03T13:56:17;1.52;;;1.00;;
18905;SDS011;9585;51.018;4.282;2023-04-03T13:59:00;2.65;;;1.00;;
18905;SDS011;9585;51.018;4.282;2023-04-03T14:01:33;1.88;;;1.10;;
18905;SDS011;9585;51.018;4.282;2023-04-03T14:04:11;2.00;;;1.10;;
18905;SDS011;9585;51.018;4.282;2023-04-03T14:06:41;2.30;;;1.25;;
18905;SDS011;9585;51.018;4.282;2023-04-03T14:09:09;2.50;;;1.20;;
18905;SDS011;9585;51.018;4.282;2023-04-03T14:11:36;2.55;;;1.17;;
18905;SDS011;9585;51.018;4.282;2023-04-03T14:14:11;2.00;;;1.20;;
18905;SDS011;9585;51.018;4.282;2023-04-03T14:16:43;2.30;;;1.40;;
18905;SDS011;9585;51.018;4.282;2023-04-03T14:19:20;2.28;;;1.30;;
18905;SDS011;9585;51.018;4.282;2023-04-03T14:21:49;2.72;;;1.20;;
18905;SDS011;9585;51.018;4.282;2023-04-03T14:24:18;1.90;;;1.05;;
18905;SDS011;9585;51.018;4.282;2023-04-03T14:26:46;2.65;;;1.10;;
18905;SDS011;9585;51.018;4.282;2023-04-03T14:29:19;2.63;;;1.30;;
18905;SDS011;9585;51.018;4.282;2023-04-03T14:31:52;2.05;;;1.08;;
18905;SDS011;9585;51.018;4.282;2023-04-03T14:34:20;1.95;;;1.30;;
18905;SDS011;9585;51.018;4.282;2023-04-03T14:36:47;3.97;;;1.10;;
18905;SDS011;9585;51.018;4.282;2023-04-03T14:39:16;2.92;;;1.38;;
18905;SDS011;9585;51.018;4.282;2023-04-03T14:41:45;1.90;;;1.13;;
18905;SDS011;9585;51.018;4.282;2023-04-03T14:44:19;3.85;;;1.10;;
18905;SDS011;9585;51.018;4.282;2023-04-03T14:46:48;1.88;;;1.05;;
18905;SDS011;9585;51.018;4.282;2023-04-03T14:49:18;3.40;;;1.52;;
18905;SDS011;9585;51.018;4.282;2023-04-03T14:51:47;2.35;;;1.15;;
18905;SDS011;9585;51.018;4.282;2023-04-03T14:54:17;3.42;;;1.05;;
18905;SDS011;9585;51.018;4.282;2023-04-03T14:56:50;2.30;;;1.15;;
18905;SDS011;9585;51.018;4.282;2023-04-03T14:59:22;1.77;;;1.08;;
18905;SDS011;9585;51.018;4.282;2023-04-03T15:01:50;1.33;;;0.98;;
18905;SDS011;9585;51.018;4.282;2023-04-03T15:04:20;2.75;;;1.13;;
18905;SDS011;9585;51.018;4.282;2023-04-03T15:06:47;1.83;;;1.10;;
18905;SDS011;9585;51.018;4.282;2023-04-03T15:09:21;1.73;;;0.93;;
18905;SDS011;9585;51.018;4.282;2023-04-03T15:11:50;2.95;;;1.20;;
18905;SDS011;9585;51.018;4.282;2023-04-03T15:14:21;1.73;;;1.10;;
18905;SDS011;9585;51.018;4.282;2023-04-03T15:16:49;1.77;;;0.80;;
18905;SDS011;9585;51.018;4.282;2023-04-03T15:19:16;2.45;;;1.10;;
18905;SDS011;9585;51.018;4.282;2023-04-03T15:21:44;1.63;;;0.88;;
18905;SDS011;9585;51.018;4.282;2023-04-03T15:24:11;2.38;;;0.90;;
18905;SDS011;9585;51.018;4.282;2023-04-03T15:26:39;3.67;;;1.05;;
18905;SDS011;9585;51.018;4.282;2023-04-03T15:29:07;1.63;;;0.80;;
18905;SDS011;9585;51.018;4.282;2023-04-03T15:31:36;1.95;;;1.00;;
18905;SDS011;9585;51.018;4.282;2023-04-03T15:34:04;3.00;;;1.10;;
18905;SDS011;9585;51.018;4.282;2023-04-03T15:36:31;2.78;;;0.90;;
18905;SDS011;9585;51.018;4.282;2023-04-03T15:38:58;1.30;;;0.80;;
18905;SDS011;9585;51.018;4.282;2023-04-03T15:41:26;1.95;;;1.10;;
18905;SDS011;9585;51.018;4.282;2023-04-03T15:43:55;2.72;;;1.25;;
18905;SDS011;9585;51.018;4.282;2023-04-03T15:46:24;2.08;;;1.20;;
18905;SDS011;9585;51.018;4.282;2023-04-03T15:48:53;2.08;;;1.00;;
18905;SDS011;9585;51.018;4.282;2023-04-03T15:51:20;1.50;;;0.98;;
18905;SDS011;9585;51.018;4.282;2023-04-03T15:53:48;2.03;;;1.00;;